Etusivu
METAR-TAF:

METAR-TAF

Lentoasemat :

Hobbs, New Mexico, Yhdysvallat

Leveyspiiri: 32-41N, Pituuspiiri: 103-13W, korkeus merenpinnasta: 1115 m

Tämänhetkinen sää

Tämä raportti tehtiin 13 minuuttia sitten, kello 00.15 UTC
Tuuli 16 kn kaakosta
Lämpötila 36°C
Kosteus 19%
Ilmanpaine 1014 hPa
Näkyvyys: 16.1 km
selkeää

METAR: KHOB 060015Z AUTO 14016KT 10SM CLR 36/09 A2994 RMK AO2

Aika: 18:28 (00:28 UTC)

Sääennuste

Tämä raportti tehtiin 1 tunti ja 8 minuuttia sitten, kello 23.20 UTC
Ennuste voimassa 06. päivästä klo 00 UTC - 06. päivään klo 24 UTC
Tuuli 13 kn etelästä/kaakosta puuskistuen 21 kn:hen
Näkyvyys: 10 km
Hajanaisia pilviä 25000 ft:n korkeudessa
From 06. päivästä klo 0600 UTC
Tuuli 9 kn kaakosta
Näkyvyys: 10 km
selkeää
From 06. päivästä klo 1500 UTC
Tuuli 15 kn kaakosta puuskistuen 23 kn:hen
Näkyvyys: 10 km
selkeää

TAF: KHOB 052320Z 0600/0624 15013G21KT P6SM SCT250 FM060600 14009KT P6SM SKC FM061500 14015G23KT P6SM SKC

Säähavainnot ja -ennusteet yli 4000 lentoasemalta (METAR- ja TAF-raportit).

Käytössä olevat sääasemat on merkitty karttaan keltaisilla ja punaisilla pisteillä.

Aseta hiiri pisteen päälle nähdäksesi sääaseman nimen.

Klikkaa sitten nähdäksesi säähavainnot ja -ennusteet.

Kartan vaihtaminen: klikkaa mustalla rastilla varustettuja vihreitä pisteitä, niin voit zoomata sisään; viivalla varustettua vihreää pistettä, niin voit zoomata ulos tai vihreitä nuolia, niin pääset viereisille kartoille.


METAR-TAF: